Ursa Minor — ICGH — position and weather

sailwx.info

Track history (hours):
 
Tides and Currents Weather Stations Pressure Air Temp Water Temp Dewpoint Dewpoint Depression Visibility Wind Speed Wind Dir Waves Ship Positions

Ursa Minor

Last reported at 2014-Sep-15 15:08 UTC. Time now 2014-Sep-17 17:36 UTC.
Position N 43°25' E 010°06'.

Length 205 m; draft 7 m.

MMSI: 247082300.

Date/timePositionNaut miles runAvg speedWind from/ knotsBaromVisibWave heightAir tempDewpointWater temp
2014-Sep-15 15:08N 43°25' E 010°06'813.8
2014-Sep-15 14:33N 43°32' E 009°59'1413.6
2014-Sep-15 13:34N 43°42' E 009°46'1313.2
2014-Sep-15 12:34N 43°51' E 009°34'1313.1
2014-Sep-15 11:34N 44°01' E 009°22'1313.4
2014-Sep-15 10:33N 44°11' E 009°09'1313.5
2014-Sep-15 09:34N 44°21' E 008°57'5 4.7
2014-Sep-15 08:32N 44°24' E 008°52'0 0.2
2014-Sep-15 07:19N 44°24' E 008°52'0 0.0
2014-Sep-15 06:22N 44°24' E 008°52'0 0.0
2014-Sep-15 05:04N 44°24' E 008°52'0 0.0
2014-Sep-15 04:31N 44°24' E 008°52'0 0.0
2014-Sep-15 03:33N 44°24' E 008°52'0 0.0
2014-Sep-15 02:33N 44°24' E 008°52'0 0.0
2014-Sep-15 01:30N 44°24' E 008°52'0 0.0
2014-Sep-15 00:33N 44°24' E 008°52'0 0.0
2014-Sep-14 23:29N 44°24' E 008°52'0 0.0
2014-Sep-14 22:29N 44°24' E 008°52'0 0.0
2014-Sep-14 21:33N 44°24' E 008°52'3 2.9
2014-Sep-14 20:33N 44°23' E 008°55'2 1.7
2014-Sep-14 19:33N 44°21' E 008°55'3 2.6
2014-Sep-14 18:33N 44°18' E 008°56'1313.3
2014-Sep-14 17:33N 44°10' E 009°11'1413.6
2014-Sep-14 16:33N 44°00' E 009°23'1413.7
2014-Sep-14 15:33N 43°50' E 009°36'1413.5
2014-Sep-14 14:33N 43°40' E 009°49'1313.1
2014-Sep-14 13:33N 43°30' E 010°01'1212.1
2014-Sep-14 12:33N 43°20' E 010°09'1312.7
2014-Sep-14 11:33N 43°09' E 010°17'1513.2
2014-Sep-14 10:24N 42°55' E 010°27'18813.4
2014-Sep-13 20:25N 40°48' E 013°33'1213.2
2014-Sep-13 19:32N 40°41' E 013°45'1313.5
2014-Sep-13 18:33N 40°32' E 013°58'15812.7
2014-Sep-13 06:06N 38°14' E 015°37'  
2014-Sep-08 22:32N 43°19' E 010°10'1313.4
2014-Sep-08 21:33N 43°30' E 010°01'1313.1
2014-Sep-08 20:33N 43°40' E 009°48'1313.2
2014-Sep-08 19:33N 43°49' E 009°36'1413.6
2014-Sep-08 18:33N 43°60' E 009°24'1313.5
2014-Sep-08 17:33N 44°09' E 009°11'1313.3
2014-Sep-08 16:33N 44°19' E 008°58'7 6.9
2014-Sep-08 15:33N 44°24' E 008°52'0 0.0
2014-Sep-08 14:33N 44°24' E 008°52'0 0.0
2014-Sep-08 13:33N 44°24' E 008°52'0 0.0
2014-Sep-08 12:33N 44°24' E 008°52'0 0.0
2014-Sep-08 11:33N 44°24' E 008°52'0 0.0
2014-Sep-08 10:33N 44°24' E 008°52'0 0.0
2014-Sep-08 09:33N 44°24' E 008°52'0 0.0
2014-Sep-08 08:33N 44°24' E 008°52'0 0.2
2014-Sep-08 07:33N 44°24' E 008°52'3 2.7
2014-Sep-08 06:33N 44°23' E 008°56'1111.2
2014-Sep-08 05:34N 44°15' E 009°06'1313.2
2014-Sep-08 04:33N 44°04' E 009°18'1313.0
2014-Sep-08 03:34N 43°55' E 009°30'1313.0
2014-Sep-08 02:33N 43°46' E 009°43'1313.0
2014-Sep-08 01:33N 43°35' E 009°54'1313.0
2014-Sep-08 00:33N 43°25' E 010°04'1312.5
2014-Sep-07 23:33N 43°14' E 010°13'37612.5
2014-Sep-06 17:30N 38°27' E 015°35'14 9.7
2014-Sep-06 16:05N 38°14' E 015°37'510.1
2014-Sep-06 15:33N 38°08' E 015°36'  
Track history (hours):
 
Tides and Currents Weather Stations Pressure Air Temp Water Temp Dewpoint Dewpoint Depression Visibility Wind Speed Wind Dir Waves Ship Positions

Ursa Minor

Last reported at 2014-Sep-15 15:08 UTC. Time now 2014-Sep-17 17:36 UTC.
Position N 43°25' E 010°06'.

Length 205 m; draft 7 m.

MMSI: 247082300.

Date/timePositionNaut miles runAvg speedWind from/ knotsBaromVisibWave heightAir tempDewpointWater temp
2014-Sep-15 15:08N 43°25' E 010°06'813.8
2014-Sep-15 14:33N 43°32' E 009°59'1413.6
2014-Sep-15 13:34N 43°42' E 009°46'1313.2
2014-Sep-15 12:34N 43°51' E 009°34'1313.1
2014-Sep-15 11:34N 44°01' E 009°22'1313.4
2014-Sep-15 10:33N 44°11' E 009°09'1313.5
2014-Sep-15 09:34N 44°21' E 008°57'5 4.7
2014-Sep-15 08:32N 44°24' E 008°52'0 0.2
2014-Sep-15 07:19N 44°24' E 008°52'0 0.0
2014-Sep-15 06:22N 44°24' E 008°52'0 0.0
2014-Sep-15 05:04N 44°24' E 008°52'0 0.0
2014-Sep-15 04:31N 44°24' E 008°52'0 0.0
2014-Sep-15 03:33N 44°24' E 008°52'0 0.0
2014-Sep-15 02:33N 44°24' E 008°52'0 0.0
2014-Sep-15 01:30N 44°24' E 008°52'0 0.0
2014-Sep-15 00:33N 44°24' E 008°52'0 0.0
2014-Sep-14 23:29N 44°24' E 008°52'0 0.0
2014-Sep-14 22:29N 44°24' E 008°52'0 0.0
2014-Sep-14 21:33N 44°24' E 008°52'3 2.9
2014-Sep-14 20:33N 44°23' E 008°55'2 1.7
2014-Sep-14 19:33N 44°21' E 008°55'3 2.6
2014-Sep-14 18:33N 44°18' E 008°56'1313.3
2014-Sep-14 17:33N 44°10' E 009°11'1413.6
2014-Sep-14 16:33N 44°00' E 009°23'1413.7
2014-Sep-14 15:33N 43°50' E 009°36'1413.5
2014-Sep-14 14:33N 43°40' E 009°49'1313.1
2014-Sep-14 13:33N 43°30' E 010°01'1212.1
2014-Sep-14 12:33N 43°20' E 010°09'1312.7
2014-Sep-14 11:33N 43°09' E 010°17'1513.2
2014-Sep-14 10:24N 42°55' E 010°27'18813.4
2014-Sep-13 20:25N 40°48' E 013°33'1213.2
2014-Sep-13 19:32N 40°41' E 013°45'1313.5
2014-Sep-13 18:33N 40°32' E 013°58'15812.7
2014-Sep-13 06:06N 38°14' E 015°37'  
2014-Sep-08 22:32N 43°19' E 010°10'1313.4
2014-Sep-08 21:33N 43°30' E 010°01'1313.1
2014-Sep-08 20:33N 43°40' E 009°48'1313.2
2014-Sep-08 19:33N 43°49' E 009°36'1413.6
2014-Sep-08 18:33N 43°60' E 009°24'1313.5
2014-Sep-08 17:33N 44°09' E 009°11'1313.3
2014-Sep-08 16:33N 44°19' E 008°58'7 6.9
2014-Sep-08 15:33N 44°24' E 008°52'0 0.0
2014-Sep-08 14:33N 44°24' E 008°52'0 0.0
2014-Sep-08 13:33N 44°24' E 008°52'0 0.0
2014-Sep-08 12:33N 44°24' E 008°52'0 0.0
2014-Sep-08 11:33N 44°24' E 008°52'0 0.0
2014-Sep-08 10:33N 44°24' E 008°52'0 0.0
2014-Sep-08 09:33N 44°24' E 008°52'0 0.0
2014-Sep-08 08:33N 44°24' E 008°52'0 0.2
2014-Sep-08 07:33N 44°24' E 008°52'3 2.7
2014-Sep-08 06:33N 44°23' E 008°56'1111.2
2014-Sep-08 05:34N 44°15' E 009°06'1313.2
2014-Sep-08 04:33N 44°04' E 009°18'1313.0
2014-Sep-08 03:34N 43°55' E 009°30'1313.0
2014-Sep-08 02:33N 43°46' E 009°43'1313.0
2014-Sep-08 01:33N 43°35' E 009°54'1313.0
2014-Sep-08 00:33N 43°25' E 010°04'1312.5
2014-Sep-07 23:33N 43°14' E 010°13'37612.5
2014-Sep-06 17:30N 38°27' E 015°35'14 9.7
2014-Sep-06 16:05N 38°14' E 015°37'510.1
2014-Sep-06 15:33N 38°08' E 015°36'  

Dump ship's entire track history